sensor_id;sensor_type;location;lat;lon;timestamp;P1;durP1;ratioP1;P2;durP2;ratioP2
17488;SDS011;8861;52.644;4.734;2024-01-25T00:01:53;51.80;;;7.70;;
17488;SDS011;8861;52.644;4.734;2024-01-25T00:04:20;46.13;;;7.57;;
17488;SDS011;8861;52.644;4.734;2024-01-25T00:06:47;42.23;;;7.83;;
17488;SDS011;8861;52.644;4.734;2024-01-25T00:09:15;45.37;;;7.60;;
17488;SDS011;8861;52.644;4.734;2024-01-25T00:11:42;40.00;;;7.03;;
17488;SDS011;8861;52.644;4.734;2024-01-25T00:14:09;40.67;;;6.93;;
17488;SDS011;8861;52.644;4.734;2024-01-25T00:16:40;43.33;;;7.10;;
17488;SDS011;8861;52.644;4.734;2024-01-25T00:19:07;48.27;;;7.10;;
17488;SDS011;8861;52.644;4.734;2024-01-25T00:21:34;41.73;;;6.27;;
17488;SDS011;8861;52.644;4.734;2024-01-25T00:24:01;42.20;;;7.67;;
17488;SDS011;8861;52.644;4.734;2024-01-25T00:26:30;36.73;;;6.57;;
17488;SDS011;8861;52.644;4.734;2024-01-25T00:28:57;46.73;;;7.27;;
17488;SDS011;8861;52.644;4.734;2024-01-25T00:31:24;35.93;;;6.60;;
17488;SDS011;8861;52.644;4.734;2024-01-25T00:33:51;39.93;;;6.60;;
17488;SDS011;8861;52.644;4.734;2024-01-25T00:36:18;45.03;;;7.10;;
17488;SDS011;8861;52.644;4.734;2024-01-25T00:38:46;48.97;;;7.20;;
17488;SDS011;8861;52.644;4.734;2024-01-25T00:41:13;42.63;;;6.53;;
17488;SDS011;8861;52.644;4.734;2024-01-25T00:43:46;35.23;;;6.40;;
17488;SDS011;8861;52.644;4.734;2024-01-25T00:46:13;47.60;;;6.83;;
17488;SDS011;8861;52.644;4.734;2024-01-25T00:48:41;39.53;;;6.77;;
17488;SDS011;8861;52.644;4.734;2024-01-25T00:51:08;42.07;;;6.63;;
17488;SDS011;8861;52.644;4.734;2024-01-25T00:53:41;36.80;;;7.10;;
17488;SDS011;8861;52.644;4.734;2024-01-25T00:56:10;48.20;;;7.80;;
17488;SDS011;8861;52.644;4.734;2024-01-25T00:58:38;41.27;;;6.30;;
17488;SDS011;8861;52.644;4.734;2024-01-25T01:01:07;41.73;;;6.70;;
17488;SDS011;8861;52.644;4.734;2024-01-25T01:03:36;42.57;;;6.60;;
17488;SDS011;8861;52.644;4.734;2024-01-25T01:06:03;39.33;;;6.37;;
17488;SDS011;8861;52.644;4.734;2024-01-25T01:08:31;45.97;;;7.10;;
17488;SDS011;8861;52.644;4.734;2024-01-25T01:10:58;46.00;;;7.47;;
17488;SDS011;8861;52.644;4.734;2024-01-25T01:13:25;37.70;;;6.63;;
17488;SDS011;8861;52.644;4.734;2024-01-25T01:15:52;36.20;;;6.63;;
17488;SDS011;8861;52.644;4.734;2024-01-25T01:18:20;43.60;;;7.40;;
17488;SDS011;8861;52.644;4.734;2024-01-25T01:20:48;33.53;;;6.83;;
17488;SDS011;8861;52.644;4.734;2024-01-25T01:23:15;43.43;;;7.57;;
17488;SDS011;8861;52.644;4.734;2024-01-25T01:25:43;40.60;;;6.93;;
17488;SDS011;8861;52.644;4.734;2024-01-25T01:28:10;37.60;;;6.77;;
17488;SDS011;8861;52.644;4.734;2024-01-25T01:30:37;36.40;;;6.57;;
17488;SDS011;8861;52.644;4.734;2024-01-25T01:33:06;39.83;;;6.30;;
17488;SDS011;8861;52.644;4.734;2024-01-25T01:35:35;52.73;;;7.23;;
17488;SDS011;8861;52.644;4.734;2024-01-25T01:38:02;49.50;;;7.30;;
17488;SDS011;8861;52.644;4.734;2024-01-25T01:40:33;42.40;;;6.77;;
17488;SDS011;8861;52.644;4.734;2024-01-25T01:43:00;35.43;;;6.77;;
17488;SDS011;8861;52.644;4.734;2024-01-25T01:45:27;37.53;;;6.43;;
17488;SDS011;8861;52.644;4.734;2024-01-25T01:47:54;35.60;;;6.27;;
17488;SDS011;8861;52.644;4.734;2024-01-25T01:50:23;47.13;;;8.10;;
17488;SDS011;8861;52.644;4.734;2024-01-25T01:52:52;42.40;;;7.30;;
17488;SDS011;8861;52.644;4.734;2024-01-25T01:55:19;32.53;;;6.93;;
17488;SDS011;8861;52.644;4.734;2024-01-25T01:57:46;28.60;;;6.30;;
17488;SDS011;8861;52.644;4.734;2024-01-25T02:00:14;38.23;;;7.27;;
17488;SDS011;8861;52.644;4.734;2024-01-25T02:02:42;35.93;;;6.63;;
17488;SDS011;8861;52.644;4.734;2024-01-25T02:05:10;38.00;;;6.83;;
17488;SDS011;8861;52.644;4.734;2024-01-25T02:07:39;41.43;;;7.03;;
17488;SDS011;8861;52.644;4.734;2024-01-25T02:10:11;35.37;;;7.00;;
17488;SDS011;8861;52.644;4.734;2024-01-25T02:12:38;37.13;;;6.50;;
17488;SDS011;8861;52.644;4.734;2024-01-25T02:15:05;37.23;;;7.07;;
17488;SDS011;8861;52.644;4.734;2024-01-25T02:17:33;35.57;;;6.20;;
17488;SDS011;8861;52.644;4.734;2024-01-25T02:20:00;52.60;;;7.73;;
17488;SDS011;8861;52.644;4.734;2024-01-25T02:22:30;51.97;;;6.93;;
17488;SDS011;8861;52.644;4.734;2024-01-25T02:24:57;38.10;;;6.53;;
17488;SDS011;8861;52.644;4.734;2024-01-25T02:27:24;34.43;;;6.40;;
17488;SDS011;8861;52.644;4.734;2024-01-25T02:29:51;45.43;;;7.67;;
17488;SDS011;8861;52.644;4.734;2024-01-25T02:32:18;43.13;;;7.87;;
17488;SDS011;8861;52.644;4.734;2024-01-25T02:34:46;45.63;;;7.57;;
17488;SDS011;8861;52.644;4.734;2024-01-25T02:37:13;37.67;;;6.60;;
17488;SDS011;8861;52.644;4.734;2024-01-25T02:39:44;40.90;;;6.93;;
17488;SDS011;8861;52.644;4.734;2024-01-25T02:42:11;39.77;;;7.30;;
17488;SDS011;8861;52.644;4.734;2024-01-25T02:44:39;39.23;;;6.77;;
17488;SDS011;8861;52.644;4.734;2024-01-25T02:47:06;37.90;;;6.47;;
17488;SDS011;8861;52.644;4.734;2024-01-25T02:49:33;41.70;;;6.87;;
17488;SDS011;8861;52.644;4.734;2024-01-25T02:52:00;28.73;;;5.80;;
17488;SDS011;8861;52.644;4.734;2024-01-25T02:54:27;44.43;;;7.30;;
17488;SDS011;8861;52.644;4.734;2024-01-25T02:56:56;39.47;;;6.63;;
17488;SDS011;8861;52.644;4.734;2024-01-25T02:59:24;36.00;;;6.43;;
17488;SDS011;8861;52.644;4.734;2024-01-25T03:01:51;46.87;;;7.97;;
17488;SDS011;8861;52.644;4.734;2024-01-25T03:04:19;34.13;;;6.17;;
17488;SDS011;8861;52.644;4.734;2024-01-25T03:06:46;33.93;;;6.57;;
17488;SDS011;8861;52.644;4.734;2024-01-25T03:09:13;34.53;;;7.40;;
17488;SDS011;8861;52.644;4.734;2024-01-25T03:11:41;35.37;;;6.57;;
17488;SDS011;8861;52.644;4.734;2024-01-25T03:14:09;48.87;;;7.47;;
17488;SDS011;8861;52.644;4.734;2024-01-25T03:16:35;35.27;;;6.43;;
17488;SDS011;8861;52.644;4.734;2024-01-25T03:19:02;28.40;;;5.70;;
17488;SDS011;8861;52.644;4.734;2024-01-25T03:21:29;33.30;;;5.33;;
17488;SDS011;8861;52.644;4.734;2024-01-25T03:23:56;32.67;;;6.07;;
17488;SDS011;8861;52.644;4.734;2024-01-25T03:26:23;22.80;;;5.57;;
17488;SDS011;8861;52.644;4.734;2024-01-25T03:28:50;24.57;;;5.43;;
17488;SDS011;8861;52.644;4.734;2024-01-25T03:31:18;28.00;;;5.77;;
17488;SDS011;8861;52.644;4.734;2024-01-25T03:33:45;25.30;;;5.80;;
17488;SDS011;8861;52.644;4.734;2024-01-25T03:36:13;25.97;;;5.30;;
17488;SDS011;8861;52.644;4.734;2024-01-25T03:38:40;22.87;;;5.20;;
17488;SDS011;8861;52.644;4.734;2024-01-25T03:41:08;27.97;;;5.80;;
17488;SDS011;8861;52.644;4.734;2024-01-25T03:43:35;30.07;;;5.97;;
17488;SDS011;8861;52.644;4.734;2024-01-25T03:46:02;33.30;;;5.37;;
17488;SDS011;8861;52.644;4.734;2024-01-25T03:48:33;29.17;;;5.87;;
17488;SDS011;8861;52.644;4.734;2024-01-25T03:51:00;25.60;;;5.33;;
17488;SDS011;8861;52.644;4.734;2024-01-25T03:53:27;32.43;;;6.17;;
17488;SDS011;8861;52.644;4.734;2024-01-25T03:55:55;24.40;;;5.70;;
17488;SDS011;8861;52.644;4.734;2024-01-25T03:58:21;33.00;;;6.27;;
17488;SDS011;8861;52.644;4.734;2024-01-25T04:00:48;26.57;;;5.43;;
17488;SDS011;8861;52.644;4.734;2024-01-25T04:03:16;35.87;;;6.80;;
17488;SDS011;8861;52.644;4.734;2024-01-25T04:05:45;35.10;;;5.63;;
17488;SDS011;8861;52.644;4.734;2024-01-25T04:08:11;29.30;;;5.23;;
17488;SDS011;8861;52.644;4.734;2024-01-25T04:10:38;38.60;;;6.40;;
17488;SDS011;8861;52.644;4.734;2024-01-25T04:13:07;39.93;;;6.50;;
17488;SDS011;8861;52.644;4.734;2024-01-25T04:15:34;33.47;;;5.70;;
17488;SDS011;8861;52.644;4.734;2024-01-25T04:18:01;40.40;;;6.37;;
17488;SDS011;8861;52.644;4.734;2024-01-25T04:20:28;38.63;;;6.63;;
17488;SDS011;8861;52.644;4.734;2024-01-25T04:22:58;25.93;;;5.70;;
17488;SDS011;8861;52.644;4.734;2024-01-25T04:25:25;26.97;;;5.23;;
17488;SDS011;8861;52.644;4.734;2024-01-25T04:27:52;28.87;;;5.77;;
17488;SDS011;8861;52.644;4.734;2024-01-25T04:30:19;33.33;;;6.40;;
17488;SDS011;8861;52.644;4.734;2024-01-25T04:32:46;28.80;;;5.67;;
17488;SDS011;8861;52.644;4.734;2024-01-25T04:35:13;30.10;;;5.90;;
17488;SDS011;8861;52.644;4.734;2024-01-25T04:37:40;31.33;;;6.33;;
17488;SDS011;8861;52.644;4.734;2024-01-25T04:40:10;28.63;;;5.60;;
17488;SDS011;8861;52.644;4.734;2024-01-25T04:42:37;26.30;;;5.50;;
17488;SDS011;8861;52.644;4.734;2024-01-25T04:45:04;31.63;;;6.00;;
17488;SDS011;8861;52.644;4.734;2024-01-25T04:47:32;27.27;;;5.53;;
17488;SDS011;8861;52.644;4.734;2024-01-25T04:49:59;24.30;;;4.97;;
17488;SDS011;8861;52.644;4.734;2024-01-25T04:52:26;27.80;;;5.60;;
17488;SDS011;8861;52.644;4.734;2024-01-25T04:54:53;25.10;;;5.23;;
17488;SDS011;8861;52.644;4.734;2024-01-25T04:57:21;21.70;;;4.80;;
17488;SDS011;8861;52.644;4.734;2024-01-25T04:59:49;19.17;;;4.90;;
17488;SDS011;8861;52.644;4.734;2024-01-25T05:02:16;16.80;;;4.23;;
17488;SDS011;8861;52.644;4.734;2024-01-25T05:04:43;22.97;;;4.53;;
17488;SDS011;8861;52.644;4.734;2024-01-25T05:07:10;22.80;;;4.77;;
17488;SDS011;8861;52.644;4.734;2024-01-25T05:09:37;20.00;;;4.73;;
17488;SDS011;8861;52.644;4.734;2024-01-25T05:12:04;22.27;;;4.97;;
17488;SDS011;8861;52.644;4.734;2024-01-25T05:14:32;26.67;;;5.47;;
17488;SDS011;8861;52.644;4.734;2024-01-25T05:17:00;30.20;;;5.13;;
17488;SDS011;8861;52.644;4.734;2024-01-25T05:19:26;26.53;;;5.47;;
17488;SDS011;8861;52.644;4.734;2024-01-25T05:21:55;24.60;;;4.87;;
17488;SDS011;8861;52.644;4.734;2024-01-25T05:24:22;30.83;;;4.93;;
17488;SDS011;8861;52.644;4.734;2024-01-25T05:26:48;26.73;;;5.27;;
17488;SDS011;8861;52.644;4.734;2024-01-25T05:29:15;23.10;;;5.23;;
17488;SDS011;8861;52.644;4.734;2024-01-25T05:31:44;23.30;;;4.97;;
17488;SDS011;8861;52.644;4.734;2024-01-25T05:34:11;24.40;;;5.50;;
17488;SDS011;8861;52.644;4.734;2024-01-25T05:36:38;25.17;;;5.03;;
17488;SDS011;8861;52.644;4.734;2024-01-25T05:39:06;28.53;;;5.43;;
17488;SDS011;8861;52.644;4.734;2024-01-25T05:41:33;24.37;;;5.10;;
17488;SDS011;8861;52.644;4.734;2024-01-25T05:44:00;19.53;;;4.87;;
17488;SDS011;8861;52.644;4.734;2024-01-25T05:46:27;25.00;;;5.47;;
17488;SDS011;8861;52.644;4.734;2024-01-25T05:48:56;23.00;;;5.40;;
17488;SDS011;8861;52.644;4.734;2024-01-25T05:51:23;22.60;;;4.83;;
17488;SDS011;8861;52.644;4.734;2024-01-25T05:53:51;22.47;;;4.70;;
17488;SDS011;8861;52.644;4.734;2024-01-25T05:56:18;25.23;;;5.90;;
17488;SDS011;8861;52.644;4.734;2024-01-25T05:58:45;28.63;;;5.83;;
17488;SDS011;8861;52.644;4.734;2024-01-25T06:01:12;20.23;;;5.20;;
17488;SDS011;8861;52.644;4.734;2024-01-25T06:03:39;22.90;;;4.90;;
17488;SDS011;8861;52.644;4.734;2024-01-25T06:06:08;20.70;;;5.00;;
17488;SDS011;8861;52.644;4.734;2024-01-25T06:08:35;23.37;;;4.87;;
17488;SDS011;8861;52.644;4.734;2024-01-25T06:11:02;17.23;;;4.73;;
17488;SDS011;8861;52.644;4.734;2024-01-25T06:13:29;21.00;;;4.57;;
17488;SDS011;8861;52.644;4.734;2024-01-25T06:15:58;19.03;;;5.00;;
17488;SDS011;8861;52.644;4.734;2024-01-25T06:18:25;25.77;;;5.40;;
17488;SDS011;8861;52.644;4.734;2024-01-25T06:20:52;23.50;;;5.37;;
17488;SDS011;8861;52.644;4.734;2024-01-25T06:23:21;24.80;;;4.70;;
17488;SDS011;8861;52.644;4.734;2024-01-25T06:25:48;22.50;;;5.27;;
17488;SDS011;8861;52.644;4.734;2024-01-25T06:28:15;23.33;;;5.17;;
17488;SDS011;8861;52.644;4.734;2024-01-25T06:30:43;19.30;;;5.07;;
17488;SDS011;8861;52.644;4.734;2024-01-25T06:33:10;26.40;;;5.10;;
17488;SDS011;8861;52.644;4.734;2024-01-25T06:35:37;16.27;;;4.93;;
17488;SDS011;8861;52.644;4.734;2024-01-25T06:38:04;22.13;;;5.33;;
17488;SDS011;8861;52.644;4.734;2024-01-25T06:40:32;24.33;;;5.90;;
17488;SDS011;8861;52.644;4.734;2024-01-25T06:42:59;21.47;;;5.63;;
17488;SDS011;8861;52.644;4.734;2024-01-25T06:45:27;28.83;;;5.20;;
17488;SDS011;8861;52.644;4.734;2024-01-25T06:47:54;23.30;;;4.93;;
17488;SDS011;8861;52.644;4.734;2024-01-25T06:50:21;26.33;;;5.27;;
17488;SDS011;8861;52.644;4.734;2024-01-25T06:52:48;18.07;;;4.60;;
17488;SDS011;8861;52.644;4.734;2024-01-25T06:55:15;20.03;;;4.97;;
17488;SDS011;8861;52.644;4.734;2024-01-25T06:57:44;23.77;;;5.63;;
17488;SDS011;8861;52.644;4.734;2024-01-25T07:00:11;24.03;;;5.27;;
17488;SDS011;8861;52.644;4.734;2024-01-25T07:02:40;20.87;;;5.43;;
17488;SDS011;8861;52.644;4.734;2024-01-25T07:05:08;22.73;;;5.67;;
17488;SDS011;8861;52.644;4.734;2024-01-25T07:07:35;28.93;;;6.13;;
17488;SDS011;8861;52.644;4.734;2024-01-25T07:10:03;21.87;;;5.27;;
17488;SDS011;8861;52.644;4.734;2024-01-25T07:12:31;25.67;;;5.73;;
17488;SDS011;8861;52.644;4.734;2024-01-25T07:14:59;22.37;;;5.20;;
17488;SDS011;8861;52.644;4.734;2024-01-25T07:17:27;22.20;;;4.90;;
17488;SDS011;8861;52.644;4.734;2024-01-25T07:19:54;19.77;;;5.37;;
17488;SDS011;8861;52.644;4.734;2024-01-25T07:22:20;22.57;;;4.90;;
17488;SDS011;8861;52.644;4.734;2024-01-25T07:24:47;22.23;;;4.80;;
17488;SDS011;8861;52.644;4.734;2024-01-25T07:27:14;20.87;;;5.07;;
17488;SDS011;8861;52.644;4.734;2024-01-25T07:29:43;17.23;;;4.83;;
17488;SDS011;8861;52.644;4.734;2024-01-25T07:32:12;26.17;;;5.20;;
17488;SDS011;8861;52.644;4.734;2024-01-25T07:34:39;24.73;;;5.33;;
17488;SDS011;8861;52.644;4.734;2024-01-25T07:37:06;19.67;;;5.43;;
17488;SDS011;8861;52.644;4.734;2024-01-25T07:39:33;23.63;;;5.63;;
17488;SDS011;8861;52.644;4.734;2024-01-25T07:42:00;28.03;;;5.80;;
17488;SDS011;8861;52.644;4.734;2024-01-25T07:44:27;21.70;;;5.33;;
17488;SDS011;8861;52.644;4.734;2024-01-25T07:46:54;30.23;;;6.23;;
17488;SDS011;8861;52.644;4.734;2024-01-25T07:49:23;24.17;;;5.67;;
17488;SDS011;8861;52.644;4.734;2024-01-25T07:51:50;21.57;;;5.07;;
17488;SDS011;8861;52.644;4.734;2024-01-25T07:54:16;20.50;;;4.70;;
17488;SDS011;8861;52.644;4.734;2024-01-25T07:56:44;22.83;;;5.30;;
17488;SDS011;8861;52.644;4.734;2024-01-25T07:59:12;30.40;;;6.63;;
17488;SDS011;8861;52.644;4.734;2024-01-25T08:01:39;24.80;;;6.20;;
17488;SDS011;8861;52.644;4.734;2024-01-25T08:04:06;29.77;;;6.73;;
17488;SDS011;8861;52.644;4.734;2024-01-25T08:06:34;28.57;;;6.83;;
17488;SDS011;8861;52.644;4.734;2024-01-25T08:09:01;30.23;;;5.67;;
17488;SDS011;8861;52.644;4.734;2024-01-25T08:11:28;31.90;;;6.13;;
17488;SDS011;8861;52.644;4.734;2024-01-25T08:13:55;27.53;;;5.60;;
17488;SDS011;8861;52.644;4.734;2024-01-25T08:16:22;28.00;;;5.40;;
17488;SDS011;8861;52.644;4.734;2024-01-25T08:18:49;26.73;;;5.57;;
17488;SDS011;8861;52.644;4.734;2024-01-25T08:21:17;26.60;;;6.40;;
17488;SDS011;8861;52.644;4.734;2024-01-25T08:23:45;33.47;;;5.93;;
17488;SDS011;8861;52.644;4.734;2024-01-25T08:26:12;31.70;;;5.87;;
17488;SDS011;8861;52.644;4.734;2024-01-25T08:28:39;30.43;;;5.73;;
17488;SDS011;8861;52.644;4.734;2024-01-25T08:31:08;24.07;;;5.50;;
17488;SDS011;8861;52.644;4.734;2024-01-25T08:33:35;29.13;;;6.10;;
17488;SDS011;8861;52.644;4.734;2024-01-25T08:36:02;38.67;;;6.27;;
17488;SDS011;8861;52.644;4.734;2024-01-25T08:38:30;25.33;;;6.23;;
17488;SDS011;8861;52.644;4.734;2024-01-25T08:40:58;29.17;;;6.17;;
17488;SDS011;8861;52.644;4.734;2024-01-25T08:43:26;28.90;;;5.93;;
17488;SDS011;8861;52.644;4.734;2024-01-25T08:45:53;25.00;;;5.40;;
17488;SDS011;8861;52.644;4.734;2024-01-25T08:48:20;26.47;;;5.87;;
17488;SDS011;8861;52.644;4.734;2024-01-25T08:50:47;32.03;;;6.73;;
17488;SDS011;8861;52.644;4.734;2024-01-25T08:53:18;22.27;;;5.20;;
17488;SDS011;8861;52.644;4.734;2024-01-25T08:55:47;23.47;;;5.40;;
17488;SDS011;8861;52.644;4.734;2024-01-25T08:58:15;34.37;;;6.87;;
17488;SDS011;8861;52.644;4.734;2024-01-25T09:00:42;32.03;;;5.93;;
17488;SDS011;8861;52.644;4.734;2024-01-25T09:03:09;29.60;;;6.17;;
17488;SDS011;8861;52.644;4.734;2024-01-25T09:05:36;23.93;;;5.83;;
17488;SDS011;8861;52.644;4.734;2024-01-25T09:08:06;30.00;;;5.77;;
17488;SDS011;8861;52.644;4.734;2024-01-25T09:10:34;27.90;;;6.17;;
17488;SDS011;8861;52.644;4.734;2024-01-25T09:13:01;29.87;;;6.27;;
17488;SDS011;8861;52.644;4.734;2024-01-25T09:15:29;29.27;;;6.00;;
17488;SDS011;8861;52.644;4.734;2024-01-25T09:17:56;23.73;;;5.33;;
17488;SDS011;8861;52.644;4.734;2024-01-25T09:20:23;25.13;;;6.17;;
17488;SDS011;8861;52.644;4.734;2024-01-25T09:22:50;27.77;;;5.60;;
17488;SDS011;8861;52.644;4.734;2024-01-25T09:25:18;20.47;;;5.43;;
17488;SDS011;8861;52.644;4.734;2024-01-25T09:27:45;21.03;;;4.70;;
17488;SDS011;8861;52.644;4.734;2024-01-25T09:30:13;22.43;;;5.17;;
17488;SDS011;8861;52.644;4.734;2024-01-25T09:32:42;20.97;;;4.93;;
17488;SDS011;8861;52.644;4.734;2024-01-25T09:35:09;26.13;;;5.07;;
17488;SDS011;8861;52.644;4.734;2024-01-25T09:37:37;18.23;;;4.80;;
17488;SDS011;8861;52.644;4.734;2024-01-25T09:40:05;21.60;;;5.10;;
17488;SDS011;8861;52.644;4.734;2024-01-25T09:42:34;20.90;;;4.37;;
17488;SDS011;8861;52.644;4.734;2024-01-25T09:45:03;21.23;;;5.10;;
17488;SDS011;8861;52.644;4.734;2024-01-25T09:47:33;21.57;;;5.80;;
17488;SDS011;8861;52.644;4.734;2024-01-25T09:50:02;23.30;;;5.73;;
17488;SDS011;8861;52.644;4.734;2024-01-25T09:52:30;27.37;;;5.50;;
17488;SDS011;8861;52.644;4.734;2024-01-25T09:54:58;16.60;;;4.80;;
17488;SDS011;8861;52.644;4.734;2024-01-25T09:57:27;28.23;;;6.03;;
17488;SDS011;8861;52.644;4.734;2024-01-25T09:59:56;21.67;;;4.73;;
17488;SDS011;8861;52.644;4.734;2024-01-25T10:02:23;25.63;;;5.63;;
17488;SDS011;8861;52.644;4.734;2024-01-25T10:04:51;23.50;;;5.40;;
17488;SDS011;8861;52.644;4.734;2024-01-25T10:10:05;19.73;;;5.03;;
17488;SDS011;8861;52.644;4.734;2024-01-25T10:12:34;23.07;;;5.03;;
17488;SDS011;8861;52.644;4.734;2024-01-25T10:15:02;27.57;;;6.17;;
17488;SDS011;8861;52.644;4.734;2024-01-25T10:17:30;33.40;;;5.70;;
17488;SDS011;8861;52.644;4.734;2024-01-25T10:19:57;28.00;;;5.50;;
17488;SDS011;8861;52.644;4.734;2024-01-25T10:22:24;25.00;;;5.50;;
17488;SDS011;8861;52.644;4.734;2024-01-25T10:24:53;29.53;;;5.70;;
17488;SDS011;8861;52.644;4.734;2024-01-25T10:27:21;24.43;;;5.50;;
17488;SDS011;8861;52.644;4.734;2024-01-25T10:29:48;28.40;;;6.73;;
17488;SDS011;8861;52.644;4.734;2024-01-25T10:32:16;32.33;;;5.80;;
17488;SDS011;8861;52.644;4.734;2024-01-25T10:34:44;29.13;;;6.00;;
17488;SDS011;8861;52.644;4.734;2024-01-25T10:37:13;27.60;;;5.53;;
17488;SDS011;8861;52.644;4.734;2024-01-25T10:39:41;27.67;;;5.67;;
17488;SDS011;8861;52.644;4.734;2024-01-25T10:42:10;30.37;;;6.37;;
17488;SDS011;8861;52.644;4.734;2024-01-25T10:44:37;24.87;;;5.87;;
17488;SDS011;8861;52.644;4.734;2024-01-25T10:47:05;29.63;;;7.43;;
17488;SDS011;8861;52.644;4.734;2024-01-25T10:49:33;29.50;;;7.27;;
17488;SDS011;8861;52.644;4.734;2024-01-25T10:52:01;31.03;;;7.40;;
17488;SDS011;8861;52.644;4.734;2024-01-25T10:54:31;26.23;;;6.77;;
17488;SDS011;8861;52.644;4.734;2024-01-25T10:56:58;25.67;;;7.03;;
17488;SDS011;8861;52.644;4.734;2024-01-25T10:59:27;34.63;;;7.33;;
17488;SDS011;8861;52.644;4.734;2024-01-25T11:01:55;34.03;;;7.93;;
17488;SDS011;8861;52.644;4.734;2024-01-25T11:04:23;28.53;;;7.33;;
17488;SDS011;8861;52.644;4.734;2024-01-25T11:06:50;33.37;;;8.17;;
17488;SDS011;8861;52.644;4.734;2024-01-25T11:09:18;28.67;;;7.70;;
17488;SDS011;8861;52.644;4.734;2024-01-25T11:11:46;34.33;;;8.83;;
17488;SDS011;8861;52.644;4.734;2024-01-25T11:14:14;36.40;;;8.37;;
17488;SDS011;8861;52.644;4.734;2024-01-25T11:16:44;40.47;;;9.07;;
17488;SDS011;8861;52.644;4.734;2024-01-25T11:19:21;34.47;;;8.00;;
17488;SDS011;8861;52.644;4.734;2024-01-25T11:21:49;32.70;;;7.57;;
17488;SDS011;8861;52.644;4.734;2024-01-25T11:24:16;34.97;;;8.43;;
17488;SDS011;8861;52.644;4.734;2024-01-25T11:26:46;32.83;;;6.83;;
17488;SDS011;8861;52.644;4.734;2024-01-25T11:29:14;33.33;;;7.57;;
17488;SDS011;8861;52.644;4.734;2024-01-25T11:31:43;31.67;;;7.13;;
17488;SDS011;8861;52.644;4.734;2024-01-25T11:34:11;30.10;;;6.73;;
17488;SDS011;8861;52.644;4.734;2024-01-25T11:36:39;31.00;;;8.10;;
17488;SDS011;8861;52.644;4.734;2024-01-25T11:39:06;24.50;;;6.83;;
17488;SDS011;8861;52.644;4.734;2024-01-25T11:41:36;27.07;;;6.13;;
17488;SDS011;8861;52.644;4.734;2024-01-25T11:44:03;24.07;;;6.47;;
17488;SDS011;8861;52.644;4.734;2024-01-25T11:46:30;27.03;;;5.73;;
17488;SDS011;8861;52.644;4.734;2024-01-25T11:49:01;24.40;;;5.40;;
17488;SDS011;8861;52.644;4.734;2024-01-25T11:51:28;31.63;;;7.23;;
17488;SDS011;8861;52.644;4.734;2024-01-25T11:53:55;37.60;;;8.00;;
17488;SDS011;8861;52.644;4.734;2024-01-25T11:56:24;32.47;;;6.90;;
17488;SDS011;8861;52.644;4.734;2024-01-25T11:58:54;31.37;;;7.70;;
17488;SDS011;8861;52.644;4.734;2024-01-25T12:01:22;30.53;;;7.53;;
17488;SDS011;8861;52.644;4.734;2024-01-25T12:03:50;34.33;;;6.83;;
17488;SDS011;8861;52.644;4.734;2024-01-25T12:06:18;25.67;;;6.37;;
17488;SDS011;8861;52.644;4.734;2024-01-25T12:08:45;27.13;;;6.20;;
17488;SDS011;8861;52.644;4.734;2024-01-25T12:11:13;30.80;;;6.33;;
17488;SDS011;8861;52.644;4.734;2024-01-25T12:13:40;24.97;;;5.73;;
17488;SDS011;8861;52.644;4.734;2024-01-25T12:16:09;26.10;;;6.57;;
17488;SDS011;8861;52.644;4.734;2024-01-25T12:18:40;26.00;;;7.07;;
17488;SDS011;8861;52.644;4.734;2024-01-25T12:21:09;31.70;;;7.13;;
17488;SDS011;8861;52.644;4.734;2024-01-25T12:23:38;30.63;;;6.80;;
17488;SDS011;8861;52.644;4.734;2024-01-25T12:26:08;30.97;;;6.80;;
17488;SDS011;8861;52.644;4.734;2024-01-25T12:28:36;31.03;;;7.07;;
17488;SDS011;8861;52.644;4.734;2024-01-25T12:31:04;39.37;;;7.20;;
17488;SDS011;8861;52.644;4.734;2024-01-25T12:33:32;28.00;;;7.57;;
17488;SDS011;8861;52.644;4.734;2024-01-25T12:36:00;34.30;;;8.20;;
17488;SDS011;8861;52.644;4.734;2024-01-25T12:38:28;30.70;;;7.23;;
17488;SDS011;8861;52.644;4.734;2024-01-25T12:40:59;30.43;;;7.70;;
17488;SDS011;8861;52.644;4.734;2024-01-25T12:43:28;28.40;;;7.47;;
17488;SDS011;8861;52.644;4.734;2024-01-25T12:45:55;26.53;;;6.83;;
17488;SDS011;8861;52.644;4.734;2024-01-25T12:48:22;27.93;;;7.50;;
17488;SDS011;8861;52.644;4.734;2024-01-25T12:50:49;32.60;;;7.37;;
17488;SDS011;8861;52.644;4.734;2024-01-25T12:53:16;29.27;;;6.93;;
17488;SDS011;8861;52.644;4.734;2024-01-25T12:55:42;25.70;;;6.33;;
17488;SDS011;8861;52.644;4.734;2024-01-25T12:58:11;32.07;;;7.00;;
17488;SDS011;8861;52.644;4.734;2024-01-25T13:00:37;26.97;;;6.63;;
17488;SDS011;8861;52.644;4.734;2024-01-25T13:03:04;20.93;;;5.93;;
17488;SDS011;8861;52.644;4.734;2024-01-25T13:05:31;22.60;;;6.17;;
17488;SDS011;8861;52.644;4.734;2024-01-25T13:07:59;31.57;;;7.13;;
17488;SDS011;8861;52.644;4.734;2024-01-25T13:10:27;31.60;;;7.83;;
17488;SDS011;8861;52.644;4.734;2024-01-25T13:12:54;28.03;;;7.00;;
17488;SDS011;8861;52.644;4.734;2024-01-25T13:15:22;25.60;;;6.17;;
17488;SDS011;8861;52.644;4.734;2024-01-25T13:17:50;26.67;;;7.27;;
17488;SDS011;8861;52.644;4.734;2024-01-25T13:20:17;28.83;;;6.87;;
17488;SDS011;8861;52.644;4.734;2024-01-25T13:22:44;28.33;;;7.03;;
17488;SDS011;8861;52.644;4.734;2024-01-25T13:25:11;25.40;;;6.17;;
17488;SDS011;8861;52.644;4.734;2024-01-25T13:27:40;30.67;;;6.97;;
17488;SDS011;8861;52.644;4.734;2024-01-25T13:30:07;24.87;;;6.23;;
17488;SDS011;8861;52.644;4.734;2024-01-25T13:32:38;32.90;;;7.33;;
17488;SDS011;8861;52.644;4.734;2024-01-25T13:35:05;25.97;;;6.57;;
17488;SDS011;8861;52.644;4.734;2024-01-25T13:37:32;33.63;;;7.20;;
17488;SDS011;8861;52.644;4.734;2024-01-25T13:39:59;25.97;;;6.60;;
17488;SDS011;8861;52.644;4.734;2024-01-25T13:42:26;32.70;;;6.93;;
17488;SDS011;8861;52.644;4.734;2024-01-25T13:44:53;37.53;;;7.07;;
17488;SDS011;8861;52.644;4.734;2024-01-25T13:47:20;38.47;;;7.70;;
17488;SDS011;8861;52.644;4.734;2024-01-25T13:49:49;34.67;;;6.70;;
17488;SDS011;8861;52.644;4.734;2024-01-25T13:52:17;30.37;;;6.90;;
17488;SDS011;8861;52.644;4.734;2024-01-25T13:54:45;38.70;;;6.77;;
17488;SDS011;8861;52.644;4.734;2024-01-25T13:57:12;37.17;;;7.37;;
17488;SDS011;8861;52.644;4.734;2024-01-25T13:59:40;35.77;;;7.63;;
17488;SDS011;8861;52.644;4.734;2024-01-25T14:02:07;39.70;;;7.90;;
17488;SDS011;8861;52.644;4.734;2024-01-25T14:04:34;43.93;;;8.20;;
17488;SDS011;8861;52.644;4.734;2024-01-25T14:07:03;45.50;;;9.43;;
17488;SDS011;8861;52.644;4.734;2024-01-25T14:09:30;39.83;;;8.97;;
17488;SDS011;8861;52.644;4.734;2024-01-25T14:11:57;38.63;;;8.03;;
17488;SDS011;8861;52.644;4.734;2024-01-25T14:14:24;34.10;;;7.60;;
17488;SDS011;8861;52.644;4.734;2024-01-25T14:16:51;34.10;;;7.77;;
17488;SDS011;8861;52.644;4.734;2024-01-25T14:19:18;31.70;;;7.73;;
17488;SDS011;8861;52.644;4.734;2024-01-25T14:21:46;36.47;;;8.33;;
17488;SDS011;8861;52.644;4.734;2024-01-25T14:24:15;35.70;;;7.47;;
17488;SDS011;8861;52.644;4.734;2024-01-25T14:26:43;35.30;;;7.70;;
17488;SDS011;8861;52.644;4.734;2024-01-25T14:29:10;35.57;;;8.17;;
17488;SDS011;8861;52.644;4.734;2024-01-25T14:31:38;35.57;;;7.77;;
17488;SDS011;8861;52.644;4.734;2024-01-25T14:34:06;36.50;;;7.20;;
17488;SDS011;8861;52.644;4.734;2024-01-25T14:36:34;34.03;;;6.93;;
17488;SDS011;8861;52.644;4.734;2024-01-25T14:39:00;31.20;;;7.53;;
17488;SDS011;8861;52.644;4.734;2024-01-25T14:41:30;25.03;;;6.30;;
17488;SDS011;8861;52.644;4.734;2024-01-25T14:43:58;28.57;;;7.00;;
17488;SDS011;8861;52.644;4.734;2024-01-25T14:46:25;27.33;;;6.67;;
17488;SDS011;8861;52.644;4.734;2024-01-25T14:48:52;25.53;;;6.27;;
17488;SDS011;8861;52.644;4.734;2024-01-25T14:51:22;32.30;;;7.33;;
17488;SDS011;8861;52.644;4.734;2024-01-25T14:53:49;36.87;;;8.73;;